sensor_id;sensor_type;location;lat;lon;timestamp;P1;durP1;ratioP1;P2;durP2;ratioP2
4885;SDS011;2457;51.788;6.136;2023-12-22T00:02:00;10.13;;;1.77;;
4885;SDS011;2457;51.788;6.136;2023-12-22T00:04:27;6.27;;;1.73;;
4885;SDS011;2457;51.788;6.136;2023-12-22T00:06:54;6.10;;;1.90;;
4885;SDS011;2457;51.788;6.136;2023-12-22T00:09:22;6.70;;;1.67;;
4885;SDS011;2457;51.788;6.136;2023-12-22T00:11:49;5.17;;;1.50;;
4885;SDS011;2457;51.788;6.136;2023-12-22T00:14:16;5.13;;;1.30;;
4885;SDS011;2457;51.788;6.136;2023-12-22T00:16:43;4.63;;;1.40;;
4885;SDS011;2457;51.788;6.136;2023-12-22T00:19:11;7.33;;;1.63;;
4885;SDS011;2457;51.788;6.136;2023-12-22T00:21:38;6.67;;;1.63;;
4885;SDS011;2457;51.788;6.136;2023-12-22T00:24:06;6.70;;;1.73;;
4885;SDS011;2457;51.788;6.136;2023-12-22T00:26:33;6.10;;;1.97;;
4885;SDS011;2457;51.788;6.136;2023-12-22T00:29:00;8.60;;;2.20;;
4885;SDS011;2457;51.788;6.136;2023-12-22T00:31:27;9.47;;;2.80;;
4885;SDS011;2457;51.788;6.136;2023-12-22T00:33:55;20.93;;;2.67;;
4885;SDS011;2457;51.788;6.136;2023-12-22T00:36:22;7.10;;;2.20;;
4885;SDS011;2457;51.788;6.136;2023-12-22T00:38:50;6.77;;;1.80;;
4885;SDS011;2457;51.788;6.136;2023-12-22T00:41:17;7.20;;;1.43;;
4885;SDS011;2457;51.788;6.136;2023-12-22T00:43:45;8.03;;;1.70;;
4885;SDS011;2457;51.788;6.136;2023-12-22T00:46:12;6.07;;;1.80;;
4885;SDS011;2457;51.788;6.136;2023-12-22T00:48:40;9.87;;;1.60;;
4885;SDS011;2457;51.788;6.136;2023-12-22T00:51:07;7.10;;;2.50;;
4885;SDS011;2457;51.788;6.136;2023-12-22T00:53:34;7.97;;;1.67;;
4885;SDS011;2457;51.788;6.136;2023-12-22T00:56:02;6.43;;;2.10;;
4885;SDS011;2457;51.788;6.136;2023-12-22T00:58:32;6.87;;;1.90;;
4885;SDS011;2457;51.788;6.136;2023-12-22T01:00:59;3.77;;;1.23;;
4885;SDS011;2457;51.788;6.136;2023-12-22T01:03:26;5.03;;;1.37;;
4885;SDS011;2457;51.788;6.136;2023-12-22T01:05:54;5.17;;;1.60;;
4885;SDS011;2457;51.788;6.136;2023-12-22T01:08:21;4.60;;;1.30;;
4885;SDS011;2457;51.788;6.136;2023-12-22T01:10:48;5.60;;;1.73;;
4885;SDS011;2457;51.788;6.136;2023-12-22T01:13:15;3.90;;;1.20;;
4885;SDS011;2457;51.788;6.136;2023-12-22T01:15:43;4.10;;;1.30;;
4885;SDS011;2457;51.788;6.136;2023-12-22T01:18:10;3.70;;;1.10;;
4885;SDS011;2457;51.788;6.136;2023-12-22T01:20:37;3.80;;;1.20;;
4885;SDS011;2457;51.788;6.136;2023-12-22T01:23:05;4.97;;;1.37;;
4885;SDS011;2457;51.788;6.136;2023-12-22T01:25:32;3.30;;;1.40;;
4885;SDS011;2457;51.788;6.136;2023-12-22T01:27:59;4.50;;;1.27;;
4885;SDS011;2457;51.788;6.136;2023-12-22T01:30:26;7.40;;;3.37;;
4885;SDS011;2457;51.788;6.136;2023-12-22T01:32:54;4.43;;;1.20;;
4885;SDS011;2457;51.788;6.136;2023-12-22T01:35:21;4.50;;;1.33;;
4885;SDS011;2457;51.788;6.136;2023-12-22T01:37:48;4.60;;;1.63;;
4885;SDS011;2457;51.788;6.136;2023-12-22T01:40:16;6.13;;;1.27;;
4885;SDS011;2457;51.788;6.136;2023-12-22T01:42:43;4.13;;;1.20;;
4885;SDS011;2457;51.788;6.136;2023-12-22T01:45:11;6.20;;;1.57;;
4885;SDS011;2457;51.788;6.136;2023-12-22T01:47:38;5.73;;;1.47;;
4885;SDS011;2457;51.788;6.136;2023-12-22T01:50:06;5.67;;;1.73;;
4885;SDS011;2457;51.788;6.136;2023-12-22T01:52:36;4.70;;;1.33;;
4885;SDS011;2457;51.788;6.136;2023-12-22T01:55:04;4.40;;;1.63;;
4885;SDS011;2457;51.788;6.136;2023-12-22T01:57:32;6.47;;;1.90;;
4885;SDS011;2457;51.788;6.136;2023-12-22T02:00:01;4.73;;;1.53;;
4885;SDS011;2457;51.788;6.136;2023-12-22T02:02:30;5.27;;;1.43;;
4885;SDS011;2457;51.788;6.136;2023-12-22T02:04:57;4.30;;;1.33;;
4885;SDS011;2457;51.788;6.136;2023-12-22T02:07:25;3.83;;;1.30;;
4885;SDS011;2457;51.788;6.136;2023-12-22T02:09:53;6.07;;;1.77;;
4885;SDS011;2457;51.788;6.136;2023-12-22T02:12:20;9.27;;;1.83;;
4885;SDS011;2457;51.788;6.136;2023-12-22T02:14:48;5.40;;;1.50;;
4885;SDS011;2457;51.788;6.136;2023-12-22T02:17:23;5.87;;;1.33;;
4885;SDS011;2457;51.788;6.136;2023-12-22T02:19:50;9.60;;;1.70;;
4885;SDS011;2457;51.788;6.136;2023-12-22T02:22:17;5.00;;;1.40;;
4885;SDS011;2457;51.788;6.136;2023-12-22T02:24:45;6.93;;;1.60;;
4885;SDS011;2457;51.788;6.136;2023-12-22T02:27:20;5.63;;;1.70;;
4885;SDS011;2457;51.788;6.136;2023-12-22T02:29:46;7.80;;;1.53;;
4885;SDS011;2457;51.788;6.136;2023-12-22T02:32:14;4.50;;;1.30;;
4885;SDS011;2457;51.788;6.136;2023-12-22T02:34:42;4.43;;;1.63;;
4885;SDS011;2457;51.788;6.136;2023-12-22T02:37:10;5.30;;;1.70;;
4885;SDS011;2457;51.788;6.136;2023-12-22T02:39:37;9.13;;;1.97;;
4885;SDS011;2457;51.788;6.136;2023-12-22T02:42:06;6.17;;;1.60;;
4885;SDS011;2457;51.788;6.136;2023-12-22T02:44:33;4.37;;;1.50;;
4885;SDS011;2457;51.788;6.136;2023-12-22T02:47:00;6.53;;;1.80;;
4885;SDS011;2457;51.788;6.136;2023-12-22T02:49:27;7.20;;;1.43;;
4885;SDS011;2457;51.788;6.136;2023-12-22T02:51:55;6.63;;;1.77;;
4885;SDS011;2457;51.788;6.136;2023-12-22T02:54:22;7.43;;;1.77;;
4885;SDS011;2457;51.788;6.136;2023-12-22T02:56:49;10.63;;;1.83;;
4885;SDS011;2457;51.788;6.136;2023-12-22T02:59:16;4.67;;;1.80;;
4885;SDS011;2457;51.788;6.136;2023-12-22T03:01:44;8.13;;;1.67;;
4885;SDS011;2457;51.788;6.136;2023-12-22T03:04:11;6.20;;;1.63;;
4885;SDS011;2457;51.788;6.136;2023-12-22T03:06:38;9.50;;;2.10;;
4885;SDS011;2457;51.788;6.136;2023-12-22T03:09:05;6.70;;;1.73;;
4885;SDS011;2457;51.788;6.136;2023-12-22T03:11:33;5.63;;;1.90;;
4885;SDS011;2457;51.788;6.136;2023-12-22T03:14:00;7.70;;;2.07;;
4885;SDS011;2457;51.788;6.136;2023-12-22T03:16:27;5.80;;;1.97;;
4885;SDS011;2457;51.788;6.136;2023-12-22T03:18:54;8.50;;;2.50;;
4885;SDS011;2457;51.788;6.136;2023-12-22T03:21:22;5.23;;;1.63;;
4885;SDS011;2457;51.788;6.136;2023-12-22T03:23:49;7.67;;;2.37;;
4885;SDS011;2457;51.788;6.136;2023-12-22T03:26:16;6.50;;;2.00;;
4885;SDS011;2457;51.788;6.136;2023-12-22T03:28:43;7.67;;;2.10;;
4885;SDS011;2457;51.788;6.136;2023-12-22T03:31:11;7.67;;;1.70;;
4885;SDS011;2457;51.788;6.136;2023-12-22T03:33:38;10.37;;;2.17;;
4885;SDS011;2457;51.788;6.136;2023-12-22T03:36:06;9.20;;;2.60;;
4885;SDS011;2457;51.788;6.136;2023-12-22T03:38:33;7.90;;;2.53;;
4885;SDS011;2457;51.788;6.136;2023-12-22T03:41:00;5.87;;;1.67;;
4885;SDS011;2457;51.788;6.136;2023-12-22T03:43:27;11.17;;;2.47;;
4885;SDS011;2457;51.788;6.136;2023-12-22T03:45:56;10.60;;;2.30;;
4885;SDS011;2457;51.788;6.136;2023-12-22T03:48:24;10.20;;;2.60;;
4885;SDS011;2457;51.788;6.136;2023-12-22T03:50:51;9.80;;;2.33;;
4885;SDS011;2457;51.788;6.136;2023-12-22T03:53:18;9.70;;;2.20;;
4885;SDS011;2457;51.788;6.136;2023-12-22T03:55:47;8.40;;;2.30;;
4885;SDS011;2457;51.788;6.136;2023-12-22T03:58:14;9.63;;;2.10;;
4885;SDS011;2457;51.788;6.136;2023-12-22T04:00:42;7.10;;;2.27;;
4885;SDS011;2457;51.788;6.136;2023-12-22T04:03:09;5.87;;;1.90;;
4885;SDS011;2457;51.788;6.136;2023-12-22T04:05:36;7.20;;;2.07;;
4885;SDS011;2457;51.788;6.136;2023-12-22T04:08:04;6.60;;;1.60;;
4885;SDS011;2457;51.788;6.136;2023-12-22T04:10:31;6.50;;;1.90;;
4885;SDS011;2457;51.788;6.136;2023-12-22T04:12:58;5.00;;;1.53;;
4885;SDS011;2457;51.788;6.136;2023-12-22T04:15:25;5.67;;;1.50;;
4885;SDS011;2457;51.788;6.136;2023-12-22T04:17:53;5.53;;;1.40;;
4885;SDS011;2457;51.788;6.136;2023-12-22T04:20:20;4.50;;;1.53;;
4885;SDS011;2457;51.788;6.136;2023-12-22T04:22:47;7.50;;;1.80;;
4885;SDS011;2457;51.788;6.136;2023-12-22T04:25:14;3.33;;;1.07;;
4885;SDS011;2457;51.788;6.136;2023-12-22T04:27:42;3.37;;;1.20;;
4885;SDS011;2457;51.788;6.136;2023-12-22T04:30:10;7.33;;;1.47;;
4885;SDS011;2457;51.788;6.136;2023-12-22T04:32:37;6.70;;;1.30;;
4885;SDS011;2457;51.788;6.136;2023-12-22T04:35:04;4.00;;;1.50;;
4885;SDS011;2457;51.788;6.136;2023-12-22T04:37:32;4.33;;;1.40;;
4885;SDS011;2457;51.788;6.136;2023-12-22T04:39:59;4.77;;;1.70;;
4885;SDS011;2457;51.788;6.136;2023-12-22T04:42:27;7.87;;;2.03;;
4885;SDS011;2457;51.788;6.136;2023-12-22T04:44:54;3.80;;;1.43;;
4885;SDS011;2457;51.788;6.136;2023-12-22T04:47:21;4.80;;;1.27;;
4885;SDS011;2457;51.788;6.136;2023-12-22T04:49:49;4.70;;;1.37;;
4885;SDS011;2457;51.788;6.136;2023-12-22T04:52:16;4.50;;;1.27;;
4885;SDS011;2457;51.788;6.136;2023-12-22T04:54:43;7.07;;;1.77;;
4885;SDS011;2457;51.788;6.136;2023-12-22T04:57:10;6.03;;;1.10;;
4885;SDS011;2457;51.788;6.136;2023-12-22T04:59:38;5.80;;;1.67;;
4885;SDS011;2457;51.788;6.136;2023-12-22T05:02:05;4.50;;;1.40;;
4885;SDS011;2457;51.788;6.136;2023-12-22T05:04:32;4.43;;;1.50;;
4885;SDS011;2457;51.788;6.136;2023-12-22T05:06:59;6.50;;;1.50;;
4885;SDS011;2457;51.788;6.136;2023-12-22T05:09:27;3.33;;;1.10;;
4885;SDS011;2457;51.788;6.136;2023-12-22T05:11:55;4.40;;;1.43;;
4885;SDS011;2457;51.788;6.136;2023-12-22T05:14:22;4.07;;;1.40;;
4885;SDS011;2457;51.788;6.136;2023-12-22T05:16:49;3.83;;;1.33;;
4885;SDS011;2457;51.788;6.136;2023-12-22T05:19:18;4.73;;;1.57;;
4885;SDS011;2457;51.788;6.136;2023-12-22T05:21:45;7.50;;;1.73;;
4885;SDS011;2457;51.788;6.136;2023-12-22T05:24:13;5.87;;;1.67;;
4885;SDS011;2457;51.788;6.136;2023-12-22T05:26:40;4.33;;;1.40;;
4885;SDS011;2457;51.788;6.136;2023-12-22T05:29:08;8.00;;;1.80;;
4885;SDS011;2457;51.788;6.136;2023-12-22T05:31:36;4.80;;;1.70;;
4885;SDS011;2457;51.788;6.136;2023-12-22T05:34:03;9.70;;;1.90;;
4885;SDS011;2457;51.788;6.136;2023-12-22T05:36:31;7.67;;;1.70;;
4885;SDS011;2457;51.788;6.136;2023-12-22T05:38:59;9.57;;;2.30;;
4885;SDS011;2457;51.788;6.136;2023-12-22T05:41:26;11.40;;;1.90;;
4885;SDS011;2457;51.788;6.136;2023-12-22T05:43:53;9.63;;;1.70;;
4885;SDS011;2457;51.788;6.136;2023-12-22T05:46:20;6.30;;;1.63;;
4885;SDS011;2457;51.788;6.136;2023-12-22T05:48:48;5.83;;;1.57;;
4885;SDS011;2457;51.788;6.136;2023-12-22T05:51:15;4.93;;;1.40;;
4885;SDS011;2457;51.788;6.136;2023-12-22T05:53:42;5.70;;;1.60;;
4885;SDS011;2457;51.788;6.136;2023-12-22T05:56:19;4.67;;;1.67;;
4885;SDS011;2457;51.788;6.136;2023-12-22T05:58:47;4.93;;;1.30;;
4885;SDS011;2457;51.788;6.136;2023-12-22T06:01:15;5.27;;;1.23;;
4885;SDS011;2457;51.788;6.136;2023-12-22T06:03:44;7.53;;;1.70;;
4885;SDS011;2457;51.788;6.136;2023-12-22T06:06:11;14.67;;;2.67;;
4885;SDS011;2457;51.788;6.136;2023-12-22T06:08:39;12.43;;;2.50;;
4885;SDS011;2457;51.788;6.136;2023-12-22T06:11:06;10.63;;;2.53;;
4885;SDS011;2457;51.788;6.136;2023-12-22T06:13:33;10.00;;;2.80;;
4885;SDS011;2457;51.788;6.136;2023-12-22T06:16:00;9.03;;;2.23;;
4885;SDS011;2457;51.788;6.136;2023-12-22T06:18:28;9.50;;;2.20;;
4885;SDS011;2457;51.788;6.136;2023-12-22T06:20:55;14.47;;;2.57;;
4885;SDS011;2457;51.788;6.136;2023-12-22T06:23:22;11.93;;;3.00;;
4885;SDS011;2457;51.788;6.136;2023-12-22T06:25:49;7.97;;;1.73;;
4885;SDS011;2457;51.788;6.136;2023-12-22T06:28:17;12.97;;;2.47;;
4885;SDS011;2457;51.788;6.136;2023-12-22T06:30:44;7.00;;;1.93;;
4885;SDS011;2457;51.788;6.136;2023-12-22T06:33:13;7.37;;;2.00;;
4885;SDS011;2457;51.788;6.136;2023-12-22T06:35:40;8.80;;;2.27;;
4885;SDS011;2457;51.788;6.136;2023-12-22T06:38:07;8.43;;;2.00;;
4885;SDS011;2457;51.788;6.136;2023-12-22T06:40:36;5.20;;;1.97;;
4885;SDS011;2457;51.788;6.136;2023-12-22T06:43:04;7.60;;;1.83;;
4885;SDS011;2457;51.788;6.136;2023-12-22T06:45:31;5.93;;;1.87;;
4885;SDS011;2457;51.788;6.136;2023-12-22T06:47:58;6.17;;;1.40;;
4885;SDS011;2457;51.788;6.136;2023-12-22T06:50:26;10.57;;;2.07;;
4885;SDS011;2457;51.788;6.136;2023-12-22T06:52:53;7.97;;;1.67;;
4885;SDS011;2457;51.788;6.136;2023-12-22T06:55:20;7.90;;;1.70;;
4885;SDS011;2457;51.788;6.136;2023-12-22T06:57:48;7.73;;;2.10;;
4885;SDS011;2457;51.788;6.136;2023-12-22T07:00:15;9.57;;;1.70;;
4885;SDS011;2457;51.788;6.136;2023-12-22T07:02:43;7.57;;;1.80;;
4885;SDS011;2457;51.788;6.136;2023-12-22T07:07:48;9.40;;;1.80;;
4885;SDS011;2457;51.788;6.136;2023-12-22T07:10:16;11.87;;;2.03;;
4885;SDS011;2457;51.788;6.136;2023-12-22T07:12:44;6.23;;;2.00;;
4885;SDS011;2457;51.788;6.136;2023-12-22T07:15:11;10.33;;;1.83;;
4885;SDS011;2457;51.788;6.136;2023-12-22T07:17:38;10.70;;;1.60;;
4885;SDS011;2457;51.788;6.136;2023-12-22T07:20:06;11.80;;;2.20;;
4885;SDS011;2457;51.788;6.136;2023-12-22T07:22:33;10.33;;;2.33;;
4885;SDS011;2457;51.788;6.136;2023-12-22T07:25:01;12.20;;;2.43;;
4885;SDS011;2457;51.788;6.136;2023-12-22T07:27:28;11.50;;;2.97;;
4885;SDS011;2457;51.788;6.136;2023-12-22T07:29:55;11.60;;;2.73;;
4885;SDS011;2457;51.788;6.136;2023-12-22T07:32:22;11.07;;;2.30;;
4885;SDS011;2457;51.788;6.136;2023-12-22T07:34:50;12.90;;;2.20;;
4885;SDS011;2457;51.788;6.136;2023-12-22T07:37:17;8.40;;;2.30;;
4885;SDS011;2457;51.788;6.136;2023-12-22T07:39:44;16.93;;;2.27;;
4885;SDS011;2457;51.788;6.136;2023-12-22T07:42:12;9.53;;;2.70;;
4885;SDS011;2457;51.788;6.136;2023-12-22T07:44:40;7.13;;;2.10;;
4885;SDS011;2457;51.788;6.136;2023-12-22T07:47:07;12.40;;;3.17;;
4885;SDS011;2457;51.788;6.136;2023-12-22T07:49:35;16.63;;;2.80;;
4885;SDS011;2457;51.788;6.136;2023-12-22T07:52:03;10.93;;;3.10;;
4885;SDS011;2457;51.788;6.136;2023-12-22T07:54:30;11.47;;;2.77;;
4885;SDS011;2457;51.788;6.136;2023-12-22T07:56:57;11.53;;;2.47;;
4885;SDS011;2457;51.788;6.136;2023-12-22T07:59:24;18.33;;;3.20;;
4885;SDS011;2457;51.788;6.136;2023-12-22T08:01:52;10.60;;;2.90;;
4885;SDS011;2457;51.788;6.136;2023-12-22T08:04:19;15.00;;;3.37;;
4885;SDS011;2457;51.788;6.136;2023-12-22T08:06:46;18.97;;;3.50;;
4885;SDS011;2457;51.788;6.136;2023-12-22T08:09:14;17.93;;;2.83;;
4885;SDS011;2457;51.788;6.136;2023-12-22T08:11:41;16.40;;;3.17;;
4885;SDS011;2457;51.788;6.136;2023-12-22T08:14:08;19.43;;;4.20;;
4885;SDS011;2457;51.788;6.136;2023-12-22T08:16:35;13.77;;;3.40;;
4885;SDS011;2457;51.788;6.136;2023-12-22T08:19:03;21.33;;;3.47;;
4885;SDS011;2457;51.788;6.136;2023-12-22T08:21:30;16.73;;;4.07;;
4885;SDS011;2457;51.788;6.136;2023-12-22T08:23:57;23.00;;;4.57;;
4885;SDS011;2457;51.788;6.136;2023-12-22T08:26:24;7.83;;;2.23;;
4885;SDS011;2457;51.788;6.136;2023-12-22T08:28:52;6.13;;;1.90;;
4885;SDS011;2457;51.788;6.136;2023-12-22T08:31:19;9.30;;;2.43;;
4885;SDS011;2457;51.788;6.136;2023-12-22T08:33:46;10.83;;;1.60;;
4885;SDS011;2457;51.788;6.136;2023-12-22T08:36:13;7.23;;;1.63;;
4885;SDS011;2457;51.788;6.136;2023-12-22T08:38:41;5.77;;;1.97;;
4885;SDS011;2457;51.788;6.136;2023-12-22T08:41:08;9.07;;;2.17;;
4885;SDS011;2457;51.788;6.136;2023-12-22T08:43:37;11.90;;;1.97;;
4885;SDS011;2457;51.788;6.136;2023-12-22T08:46:06;10.03;;;1.80;;
4885;SDS011;2457;51.788;6.136;2023-12-22T08:48:33;8.03;;;1.47;;
4885;SDS011;2457;51.788;6.136;2023-12-22T08:51:00;9.33;;;2.47;;
4885;SDS011;2457;51.788;6.136;2023-12-22T08:53:27;11.37;;;2.40;;
4885;SDS011;2457;51.788;6.136;2023-12-22T08:55:56;8.03;;;1.87;;
4885;SDS011;2457;51.788;6.136;2023-12-22T08:58:24;9.77;;;2.63;;
4885;SDS011;2457;51.788;6.136;2023-12-22T09:00:51;15.03;;;2.73;;
4885;SDS011;2457;51.788;6.136;2023-12-22T09:03:18;7.93;;;2.27;;
4885;SDS011;2457;51.788;6.136;2023-12-22T09:05:45;9.67;;;2.80;;
4885;SDS011;2457;51.788;6.136;2023-12-22T09:08:13;11.60;;;2.80;;
4885;SDS011;2457;51.788;6.136;2023-12-22T09:10:40;12.07;;;3.03;;
4885;SDS011;2457;51.788;6.136;2023-12-22T09:13:08;10.03;;;2.80;;
4885;SDS011;2457;51.788;6.136;2023-12-22T09:15:35;15.43;;;2.53;;
4885;SDS011;2457;51.788;6.136;2023-12-22T09:18:02;9.83;;;2.47;;
4885;SDS011;2457;51.788;6.136;2023-12-22T09:20:30;9.47;;;2.20;;
4885;SDS011;2457;51.788;6.136;2023-12-22T09:22:57;7.83;;;2.37;;
4885;SDS011;2457;51.788;6.136;2023-12-22T09:25:24;8.83;;;1.80;;
4885;SDS011;2457;51.788;6.136;2023-12-22T09:27:52;9.90;;;2.60;;
4885;SDS011;2457;51.788;6.136;2023-12-22T09:30:19;9.00;;;2.30;;
4885;SDS011;2457;51.788;6.136;2023-12-22T09:32:47;9.10;;;1.80;;
4885;SDS011;2457;51.788;6.136;2023-12-22T09:35:14;4.80;;;1.73;;
4885;SDS011;2457;51.788;6.136;2023-12-22T09:37:43;8.90;;;2.03;;
4885;SDS011;2457;51.788;6.136;2023-12-22T09:40:11;6.50;;;2.03;;
4885;SDS011;2457;51.788;6.136;2023-12-22T09:42:40;5.63;;;2.07;;
4885;SDS011;2457;51.788;6.136;2023-12-22T09:45:08;9.70;;;2.20;;
4885;SDS011;2457;51.788;6.136;2023-12-22T09:47:37;7.30;;;2.13;;
4885;SDS011;2457;51.788;6.136;2023-12-22T09:50:05;8.83;;;2.10;;
4885;SDS011;2457;51.788;6.136;2023-12-22T09:52:34;9.07;;;2.43;;
4885;SDS011;2457;51.788;6.136;2023-12-22T09:55:03;11.90;;;2.57;;
4885;SDS011;2457;51.788;6.136;2023-12-22T09:57:31;7.63;;;2.17;;
4885;SDS011;2457;51.788;6.136;2023-12-22T09:59:58;15.50;;;2.77;;
4885;SDS011;2457;51.788;6.136;2023-12-22T10:02:26;10.07;;;2.27;;
4885;SDS011;2457;51.788;6.136;2023-12-22T10:04:54;5.30;;;1.67;;
4885;SDS011;2457;51.788;6.136;2023-12-22T10:07:21;10.90;;;2.00;;
4885;SDS011;2457;51.788;6.136;2023-12-22T10:09:49;7.20;;;1.40;;
4885;SDS011;2457;51.788;6.136;2023-12-22T10:12:17;5.90;;;1.47;;
4885;SDS011;2457;51.788;6.136;2023-12-22T10:14:46;5.00;;;1.33;;
4885;SDS011;2457;51.788;6.136;2023-12-22T10:17:14;5.17;;;1.13;;
4885;SDS011;2457;51.788;6.136;2023-12-22T10:19:42;3.87;;;1.20;;
4885;SDS011;2457;51.788;6.136;2023-12-22T10:22:10;4.77;;;1.50;;
4885;SDS011;2457;51.788;6.136;2023-12-22T10:24:41;8.00;;;1.10;;
4885;SDS011;2457;51.788;6.136;2023-12-22T10:27:09;4.83;;;1.20;;
4885;SDS011;2457;51.788;6.136;2023-12-22T10:29:36;5.87;;;1.30;;
4885;SDS011;2457;51.788;6.136;2023-12-22T10:32:04;3.67;;;1.00;;
4885;SDS011;2457;51.788;6.136;2023-12-22T10:34:32;3.50;;;1.27;;
4885;SDS011;2457;51.788;6.136;2023-12-22T10:36:59;3.20;;;1.10;;
4885;SDS011;2457;51.788;6.136;2023-12-22T10:39:27;4.70;;;1.40;;
4885;SDS011;2457;51.788;6.136;2023-12-22T10:41:56;3.63;;;1.23;;
4885;SDS011;2457;51.788;6.136;2023-12-22T10:44:26;6.63;;;2.23;;
4885;SDS011;2457;51.788;6.136;2023-12-22T10:46:54;5.00;;;1.40;;
4885;SDS011;2457;51.788;6.136;2023-12-22T10:49:22;7.40;;;1.50;;
4885;SDS011;2457;51.788;6.136;2023-12-22T10:51:50;4.60;;;1.20;;
4885;SDS011;2457;51.788;6.136;2023-12-22T10:54:18;6.20;;;1.53;;
4885;SDS011;2457;51.788;6.136;2023-12-22T10:56:45;4.60;;;1.30;;
4885;SDS011;2457;51.788;6.136;2023-12-22T10:59:16;8.17;;;1.27;;
4885;SDS011;2457;51.788;6.136;2023-12-22T11:01:42;4.73;;;1.47;;
4885;SDS011;2457;51.788;6.136;2023-12-22T11:04:13;4.13;;;1.40;;
4885;SDS011;2457;51.788;6.136;2023-12-22T11:06:41;4.50;;;1.40;;
4885;SDS011;2457;51.788;6.136;2023-12-22T11:09:09;7.43;;;1.80;;
4885;SDS011;2457;51.788;6.136;2023-12-22T11:11:37;5.47;;;1.53;;
4885;SDS011;2457;51.788;6.136;2023-12-22T11:14:05;5.80;;;1.77;;
4885;SDS011;2457;51.788;6.136;2023-12-22T11:16:33;3.37;;;1.13;;
4885;SDS011;2457;51.788;6.136;2023-12-22T11:19:02;7.50;;;1.63;;
4885;SDS011;2457;51.788;6.136;2023-12-22T11:21:29;6.47;;;1.63;;
4885;SDS011;2457;51.788;6.136;2023-12-22T11:23:58;5.87;;;1.53;;
4885;SDS011;2457;51.788;6.136;2023-12-22T11:26:26;4.90;;;1.60;;
4885;SDS011;2457;51.788;6.136;2023-12-22T11:28:53;6.53;;;1.50;;
4885;SDS011;2457;51.788;6.136;2023-12-22T11:31:22;5.10;;;1.53;;
4885;SDS011;2457;51.788;6.136;2023-12-22T11:33:50;5.13;;;1.30;;
4885;SDS011;2457;51.788;6.136;2023-12-22T11:36:18;8.90;;;1.37;;
4885;SDS011;2457;51.788;6.136;2023-12-22T11:38:45;4.80;;;1.60;;
4885;SDS011;2457;51.788;6.136;2023-12-22T11:41:18;6.23;;;1.73;;
4885;SDS011;2457;51.788;6.136;2023-12-22T11:43:42;4.53;;;1.60;;
4885;SDS011;2457;51.788;6.136;2023-12-22T11:46:10;6.13;;;1.37;;
4885;SDS011;2457;51.788;6.136;2023-12-22T11:48:37;4.50;;;1.50;;
4885;SDS011;2457;51.788;6.136;2023-12-22T11:51:12;4.03;;;1.20;;
4885;SDS011;2457;51.788;6.136;2023-12-22T11:53:42;6.07;;;1.30;;
4885;SDS011;2457;51.788;6.136;2023-12-22T11:56:09;5.13;;;1.33;;
4885;SDS011;2457;51.788;6.136;2023-12-22T11:58:43;5.13;;;1.93;;
4885;SDS011;2457;51.788;6.136;2023-12-22T12:01:12;7.93;;;1.50;;
4885;SDS011;2457;51.788;6.136;2023-12-22T12:03:56;4.77;;;1.20;;
4885;SDS011;2457;51.788;6.136;2023-12-22T12:08:55;7.50;;;1.33;;
4885;SDS011;2457;51.788;6.136;2023-12-22T12:11:23;8.50;;;2.30;;
4885;SDS011;2457;51.788;6.136;2023-12-22T12:13:51;5.47;;;1.90;;
4885;SDS011;2457;51.788;6.136;2023-12-22T12:16:19;4.67;;;1.83;;
4885;SDS011;2457;51.788;6.136;2023-12-22T12:18:47;5.00;;;1.90;;
4885;SDS011;2457;51.788;6.136;2023-12-22T12:21:15;4.03;;;1.57;;
4885;SDS011;2457;51.788;6.136;2023-12-22T12:23:42;5.13;;;1.70;;
4885;SDS011;2457;51.788;6.136;2023-12-22T12:26:10;6.27;;;2.00;;
4885;SDS011;2457;51.788;6.136;2023-12-22T12:28:38;12.03;;;2.00;;
4885;SDS011;2457;51.788;6.136;2023-12-22T12:31:06;4.33;;;1.60;;
4885;SDS011;2457;51.788;6.136;2023-12-22T12:33:34;4.53;;;1.70;;
4885;SDS011;2457;51.788;6.136;2023-12-22T12:36:02;6.63;;;1.90;;
4885;SDS011;2457;51.788;6.136;2023-12-22T12:38:40;4.00;;;1.70;;
4885;SDS011;2457;51.788;6.136;2023-12-22T12:41:05;4.90;;;1.60;;
4885;SDS011;2457;51.788;6.136;2023-12-22T12:43:32;7.97;;;2.37;;
4885;SDS011;2457;51.788;6.136;2023-12-22T12:46:03;4.87;;;1.90;;
4885;SDS011;2457;51.788;6.136;2023-12-22T12:48:31;6.10;;;1.80;;
4885;SDS011;2457;51.788;6.136;2023-12-22T12:51:04;7.47;;;1.70;;
4885;SDS011;2457;51.788;6.136;2023-12-22T12:53:32;6.10;;;2.00;;
4885;SDS011;2457;51.788;6.136;2023-12-22T12:56:00;4.10;;;1.70;;
4885;SDS011;2457;51.788;6.136;2023-12-22T12:58:28;7.37;;;2.07;;
4885;SDS011;2457;51.788;6.136;2023-12-22T13:01:08;7.27;;;1.80;;
4885;SDS011;2457;51.788;6.136;2023-12-22T13:03:54;5.60;;;1.80;;
4885;SDS011;2457;51.788;6.136;2023-12-22T13:06:20;5.10;;;1.97;;
4885;SDS011;2457;51.788;6.136;2023-12-22T13:08:51;9.03;;;2.10;;
4885;SDS011;2457;51.788;6.136;2023-12-22T13:11:21;5.77;;;2.37;;
4885;SDS011;2457;51.788;6.136;2023-12-22T13:13:49;4.47;;;1.70;;
4885;SDS011;2457;51.788;6.136;2023-12-22T13:16:22;6.63;;;2.17;;
4885;SDS011;2457;51.788;6.136;2023-12-22T13:18:46;5.10;;;1.80;;
4885;SDS011;2457;51.788;6.136;2023-12-22T13:21:13;6.03;;;2.07;;
4885;SDS011;2457;51.788;6.136;2023-12-22T13:23:41;9.50;;;2.10;;
4885;SDS011;2457;51.788;6.136;2023-12-22T13:26:17;4.80;;;2.27;;
4885;SDS011;2457;51.788;6.136;2023-12-22T13:28:45;4.83;;;1.70;;
4885;SDS011;2457;51.788;6.136;2023-12-22T13:31:13;4.70;;;1.87;;
4885;SDS011;2457;51.788;6.136;2023-12-22T13:33:41;4.13;;;1.77;;
4885;SDS011;2457;51.788;6.136;2023-12-22T13:36:08;4.63;;;1.80;;
4885;SDS011;2457;51.788;6.136;2023-12-22T13:38:35;8.47;;;2.20;;
4885;SDS011;2457;51.788;6.136;2023-12-22T13:41:03;5.97;;;1.83;;
4885;SDS011;2457;51.788;6.136;2023-12-22T13:43:31;5.50;;;1.70;;
4885;SDS011;2457;51.788;6.136;2023-12-22T13:45:58;5.23;;;2.10;;
4885;SDS011;2457;51.788;6.136;2023-12-22T13:48:25;10.77;;;2.17;;
4885;SDS011;2457;51.788;6.136;2023-12-22T13:50:59;8.07;;;2.13;;
4885;SDS011;2457;51.788;6.136;2023-12-22T13:53:27;4.77;;;1.80;;
4885;SDS011;2457;51.788;6.136;2023-12-22T13:55:55;11.43;;;2.17;;
4885;SDS011;2457;51.788;6.136;2023-12-22T13:58:22;5.40;;;1.90;;
4885;SDS011;2457;51.788;6.136;2023-12-22T14:00:50;6.80;;;2.20;;
4885;SDS011;2457;51.788;6.136;2023-12-22T14:03:17;4.07;;;1.57;;
4885;SDS011;2457;51.788;6.136;2023-12-22T14:05:47;6.47;;;1.90;;
4885;SDS011;2457;51.788;6.136;2023-12-22T14:08:15;5.23;;;2.10;;
4885;SDS011;2457;51.788;6.136;2023-12-22T14:10:46;6.13;;;1.97;;
4885;SDS011;2457;51.788;6.136;2023-12-22T14:13:14;8.73;;;2.27;;
4885;SDS011;2457;51.788;6.136;2023-12-22T14:15:44;5.57;;;1.83;;
4885;SDS011;2457;51.788;6.136;2023-12-22T14:18:12;7.27;;;2.20;;
4885;SDS011;2457;51.788;6.136;2023-12-22T14:20:39;6.33;;;1.73;;
4885;SDS011;2457;51.788;6.136;2023-12-22T14:23:06;6.50;;;1.83;;
4885;SDS011;2457;51.788;6.136;2023-12-22T14:25:34;7.13;;;1.70;;
4885;SDS011;2457;51.788;6.136;2023-12-22T14:28:01;6.17;;;2.20;;
4885;SDS011;2457;51.788;6.136;2023-12-22T14:30:29;6.67;;;2.03;;
4885;SDS011;2457;51.788;6.136;2023-12-22T14:32:56;5.13;;;2.10;;
4885;SDS011;2457;51.788;6.136;2023-12-22T14:35:23;4.70;;;1.60;;
4885;SDS011;2457;51.788;6.136;2023-12-22T14:37:51;5.97;;;2.27;;
4885;SDS011;2457;51.788;6.136;2023-12-22T14:40:18;5.67;;;2.10;;
4885;SDS011;2457;51.788;6.136;2023-12-22T14:42:45;4.93;;;1.97;;
4885;SDS011;2457;51.788;6.136;2023-12-22T14:45:13;7.43;;;2.00;;
4885;SDS011;2457;51.788;6.136;2023-12-22T14:47:40;9.40;;;2.00;;
4885;SDS011;2457;51.788;6.136;2023-12-22T14:50:08;13.40;;;2.10;;
4885;SDS011;2457;51.788;6.136;2023-12-22T14:52:35;10.83;;;1.90;;
4885;SDS011;2457;51.788;6.136;2023-12-22T14:55:03;5.77;;;1.80;;
4885;SDS011;2457;51.788;6.136;2023-12-22T14:57:33;6.93;;;2.30;;
4885;SDS011;2457;51.788;6.136;2023-12-22T15:00:00;5.77;;;1.80;;
4885;SDS011;2457;51.788;6.136;2023-12-22T15:02:28;7.77;;;2.50;;
4885;SDS011;2457;51.788;6.136;2023-12-22T15:04:56;6.27;;;2.00;;
4885;SDS011;2457;51.788;6.136;2023-12-22T15:07:23;6.93;;;2.03;;
4885;SDS011;2457;51.788;6.136;2023-12-22T15:09:50;8.80;;;2.07;;
4885;SDS011;2457;51.788;6.136;2023-12-22T15:12:18;9.97;;;2.93;;
4885;SDS011;2457;51.788;6.136;2023-12-22T15:14:45;5.10;;;1.93;;
4885;SDS011;2457;51.788;6.136;2023-12-22T15:17:13;4.07;;;1.97;;
4885;SDS011;2457;51.788;6.136;2023-12-22T15:19:42;6.37;;;2.20;;
4885;SDS011;2457;51.788;6.136;2023-12-22T15:22:10;7.10;;;1.83;;